sensor_id;sensor_type;location;lat;lon;timestamp;temperature;humidity
16955;DHT22;8594;52.052;8.354;2024-02-21T00:00:46;9.50;99.90
16955;DHT22;8594;52.052;8.354;2024-02-21T00:03:13;9.60;99.90
16955;DHT22;8594;52.052;8.354;2024-02-21T00:05:41;9.70;99.90
16955;DHT22;8594;52.052;8.354;2024-02-21T00:08:08;9.50;99.90
16955;DHT22;8594;52.052;8.354;2024-02-21T00:10:34;9.60;99.90
16955;DHT22;8594;52.052;8.354;2024-02-21T00:13:01;9.70;99.90
16955;DHT22;8594;52.052;8.354;2024-02-21T00:15:28;9.60;99.90
16955;DHT22;8594;52.052;8.354;2024-02-21T00:17:55;9.60;99.90
16955;DHT22;8594;52.052;8.354;2024-02-21T00:20:22;9.50;99.90
16955;DHT22;8594;52.052;8.354;2024-02-21T00:22:52;9.50;99.90
16955;DHT22;8594;52.052;8.354;2024-02-21T00:25:20;9.50;99.90
16955;DHT22;8594;52.052;8.354;2024-02-21T00:27:45;9.50;99.90
16955;DHT22;8594;52.052;8.354;2024-02-21T00:30:12;9.40;99.90
16955;DHT22;8594;52.052;8.354;2024-02-21T00:32:39;9.40;99.90
16955;DHT22;8594;52.052;8.354;2024-02-21T00:35:06;9.50;99.90
16955;DHT22;8594;52.052;8.354;2024-02-21T00:37:34;9.50;99.90
16955;DHT22;8594;52.052;8.354;2024-02-21T00:40:02;9.40;99.90
16955;DHT22;8594;52.052;8.354;2024-02-21T00:42:30;9.50;99.90
16955;DHT22;8594;52.052;8.354;2024-02-21T00:44:58;9.50;99.90
16955;DHT22;8594;52.052;8.354;2024-02-21T00:47:25;9.50;99.90
16955;DHT22;8594;52.052;8.354;2024-02-21T00:49:51;9.50;99.90
16955;DHT22;8594;52.052;8.354;2024-02-21T00:52:18;9.50;99.90
16955;DHT22;8594;52.052;8.354;2024-02-21T00:54:45;9.70;99.90
16955;DHT22;8594;52.052;8.354;2024-02-21T00:57:13;9.60;99.90
16955;DHT22;8594;52.052;8.354;2024-02-21T00:59:39;9.70;99.90
16955;DHT22;8594;52.052;8.354;2024-02-21T01:02:07;9.70;99.90
16955;DHT22;8594;52.052;8.354;2024-02-21T01:04:34;9.70;99.90
16955;DHT22;8594;52.052;8.354;2024-02-21T01:07:02;9.80;99.90
16955;DHT22;8594;52.052;8.354;2024-02-21T01:09:28;9.80;99.90
16955;DHT22;8594;52.052;8.354;2024-02-21T01:11:55;9.70;99.90
16955;DHT22;8594;52.052;8.354;2024-02-21T01:14:23;9.60;99.90
16955;DHT22;8594;52.052;8.354;2024-02-21T01:16:50;9.60;99.90
16955;DHT22;8594;52.052;8.354;2024-02-21T01:19:17;9.80;99.90
16955;DHT22;8594;52.052;8.354;2024-02-21T01:21:43;9.60;99.90
16955;DHT22;8594;52.052;8.354;2024-02-21T01:24:10;9.60;99.90
16955;DHT22;8594;52.052;8.354;2024-02-21T01:26:37;9.60;99.90
16955;DHT22;8594;52.052;8.354;2024-02-21T01:29:03;9.60;99.90
16955;DHT22;8594;52.052;8.354;2024-02-21T01:31:31;9.70;99.90
16955;DHT22;8594;52.052;8.354;2024-02-21T01:33:58;9.70;99.90
16955;DHT22;8594;52.052;8.354;2024-02-21T01:36:25;9.70;99.90
16955;DHT22;8594;52.052;8.354;2024-02-21T01:38:51;9.80;99.90
16955;DHT22;8594;52.052;8.354;2024-02-21T01:41:18;9.80;99.90
16955;DHT22;8594;52.052;8.354;2024-02-21T01:43:45;9.70;99.90
16955;DHT22;8594;52.052;8.354;2024-02-21T01:46:12;9.80;99.90
16955;DHT22;8594;52.052;8.354;2024-02-21T01:48:40;9.80;99.90
16955;DHT22;8594;52.052;8.354;2024-02-21T01:51:07;9.90;99.90
16955;DHT22;8594;52.052;8.354;2024-02-21T01:53:36;9.80;99.90
16955;DHT22;8594;52.052;8.354;2024-02-21T01:56:07;9.80;99.90
16955;DHT22;8594;52.052;8.354;2024-02-21T01:58:37;9.90;99.90
16955;DHT22;8594;52.052;8.354;2024-02-21T02:01:05;9.80;99.90
16955;DHT22;8594;52.052;8.354;2024-02-21T02:03:32;9.70;99.90
16955;DHT22;8594;52.052;8.354;2024-02-21T02:06:01;9.70;99.90
16955;DHT22;8594;52.052;8.354;2024-02-21T02:08:28;9.70;99.90
16955;DHT22;8594;52.052;8.354;2024-02-21T02:10:55;9.70;99.90
16955;DHT22;8594;52.052;8.354;2024-02-21T02:13:22;9.70;99.90
16955;DHT22;8594;52.052;8.354;2024-02-21T02:15:50;9.60;99.90
16955;DHT22;8594;52.052;8.354;2024-02-21T02:18:19;9.60;99.90
16955;DHT22;8594;52.052;8.354;2024-02-21T02:20:46;9.60;99.90
16955;DHT22;8594;52.052;8.354;2024-02-21T02:23:21;9.60;99.90
16955;DHT22;8594;52.052;8.354;2024-02-21T02:25:50;9.70;99.90
16955;DHT22;8594;52.052;8.354;2024-02-21T02:28:18;9.60;99.90
16955;DHT22;8594;52.052;8.354;2024-02-21T02:30:46;9.70;99.90
16955;DHT22;8594;52.052;8.354;2024-02-21T02:33:13;9.70;99.90
16955;DHT22;8594;52.052;8.354;2024-02-21T02:35:40;9.70;99.90
16955;DHT22;8594;52.052;8.354;2024-02-21T02:38:07;9.80;99.90
16955;DHT22;8594;52.052;8.354;2024-02-21T02:40:37;9.90;99.90
16955;DHT22;8594;52.052;8.354;2024-02-21T02:43:04;9.80;99.90
16955;DHT22;8594;52.052;8.354;2024-02-21T02:45:32;9.70;99.90
16955;DHT22;8594;52.052;8.354;2024-02-21T02:47:59;9.80;99.90
16955;DHT22;8594;52.052;8.354;2024-02-21T02:50:27;9.70;99.90
16955;DHT22;8594;52.052;8.354;2024-02-21T02:52:54;9.70;99.90
16955;DHT22;8594;52.052;8.354;2024-02-21T02:55:21;9.70;99.90
16955;DHT22;8594;52.052;8.354;2024-02-21T02:57:49;9.50;99.90
16955;DHT22;8594;52.052;8.354;2024-02-21T03:00:17;9.60;99.90
16955;DHT22;8594;52.052;8.354;2024-02-21T03:02:45;9.60;99.90
16955;DHT22;8594;52.052;8.354;2024-02-21T03:05:13;9.60;99.90
16955;DHT22;8594;52.052;8.354;2024-02-21T03:07:41;9.60;99.90
16955;DHT22;8594;52.052;8.354;2024-02-21T03:10:08;9.70;99.90
16955;DHT22;8594;52.052;8.354;2024-02-21T03:12:36;9.70;99.90
16955;DHT22;8594;52.052;8.354;2024-02-21T03:15:05;9.60;99.90
16955;DHT22;8594;52.052;8.354;2024-02-21T03:17:32;9.50;99.90
16955;DHT22;8594;52.052;8.354;2024-02-21T03:20:00;9.60;99.90
16955;DHT22;8594;52.052;8.354;2024-02-21T03:22:30;9.70;99.90
16955;DHT22;8594;52.052;8.354;2024-02-21T03:24:58;9.80;99.90
16955;DHT22;8594;52.052;8.354;2024-02-21T03:27:25;9.70;99.90
16955;DHT22;8594;52.052;8.354;2024-02-21T03:29:52;9.80;99.90
16955;DHT22;8594;52.052;8.354;2024-02-21T03:32:20;9.80;99.90
16955;DHT22;8594;52.052;8.354;2024-02-21T03:34:47;9.70;99.90
16955;DHT22;8594;52.052;8.354;2024-02-21T03:37:13;9.70;99.90
16955;DHT22;8594;52.052;8.354;2024-02-21T03:39:40;9.70;99.90
16955;DHT22;8594;52.052;8.354;2024-02-21T03:42:07;9.70;99.90
16955;DHT22;8594;52.052;8.354;2024-02-21T03:44:34;9.70;99.90
16955;DHT22;8594;52.052;8.354;2024-02-21T03:47:01;9.70;99.90
16955;DHT22;8594;52.052;8.354;2024-02-21T03:49:29;9.70;99.90
16955;DHT22;8594;52.052;8.354;2024-02-21T03:51:56;9.70;99.90
16955;DHT22;8594;52.052;8.354;2024-02-21T03:54:22;9.80;99.90
16955;DHT22;8594;52.052;8.354;2024-02-21T03:56:49;9.90;99.90
16955;DHT22;8594;52.052;8.354;2024-02-21T03:59:16;9.70;99.90
16955;DHT22;8594;52.052;8.354;2024-02-21T04:01:43;9.70;99.90
16955;DHT22;8594;52.052;8.354;2024-02-21T04:04:10;9.70;99.90
16955;DHT22;8594;52.052;8.354;2024-02-21T04:06:46;9.70;99.90
16955;DHT22;8594;52.052;8.354;2024-02-21T04:09:13;9.60;99.90
16955;DHT22;8594;52.052;8.354;2024-02-21T04:11:40;9.80;99.90
16955;DHT22;8594;52.052;8.354;2024-02-21T04:14:07;9.80;99.90
16955;DHT22;8594;52.052;8.354;2024-02-21T04:16:34;9.90;99.90
16955;DHT22;8594;52.052;8.354;2024-02-21T04:19:01;9.90;99.90
16955;DHT22;8594;52.052;8.354;2024-02-21T04:21:28;9.90;99.90
16955;DHT22;8594;52.052;8.354;2024-02-21T04:23:56;9.90;99.90
16955;DHT22;8594;52.052;8.354;2024-02-21T04:26:24;10.10;99.90
16955;DHT22;8594;52.052;8.354;2024-02-21T04:28:50;9.90;99.90
16955;DHT22;8594;52.052;8.354;2024-02-21T04:31:17;9.80;99.90
16955;DHT22;8594;52.052;8.354;2024-02-21T04:33:44;9.80;99.90
16955;DHT22;8594;52.052;8.354;2024-02-21T04:36:10;9.70;99.90
16955;DHT22;8594;52.052;8.354;2024-02-21T04:38:37;9.60;99.90
16955;DHT22;8594;52.052;8.354;2024-02-21T04:41:05;9.60;99.90
16955;DHT22;8594;52.052;8.354;2024-02-21T04:43:33;9.80;99.90
16955;DHT22;8594;52.052;8.354;2024-02-21T04:46:00;9.70;99.90
16955;DHT22;8594;52.052;8.354;2024-02-21T04:48:27;9.80;99.90
16955;DHT22;8594;52.052;8.354;2024-02-21T04:50:53;9.80;99.90
16955;DHT22;8594;52.052;8.354;2024-02-21T04:53:20;9.70;99.90
16955;DHT22;8594;52.052;8.354;2024-02-21T04:55:47;9.70;99.90
16955;DHT22;8594;52.052;8.354;2024-02-21T04:58:15;9.60;99.90
16955;DHT22;8594;52.052;8.354;2024-02-21T05:00:42;9.60;99.90
16955;DHT22;8594;52.052;8.354;2024-02-21T05:03:09;9.70;99.90
16955;DHT22;8594;52.052;8.354;2024-02-21T05:05:36;9.60;99.90
16955;DHT22;8594;52.052;8.354;2024-02-21T05:08:03;9.50;99.90
16955;DHT22;8594;52.052;8.354;2024-02-21T05:10:30;9.50;99.90
16955;DHT22;8594;52.052;8.354;2024-02-21T05:12:57;9.60;99.90
16955;DHT22;8594;52.052;8.354;2024-02-21T05:15:25;9.60;99.90
16955;DHT22;8594;52.052;8.354;2024-02-21T05:17:52;9.60;99.90
16955;DHT22;8594;52.052;8.354;2024-02-21T05:20:19;9.40;99.90
16955;DHT22;8594;52.052;8.354;2024-02-21T05:22:46;9.40;99.90
16955;DHT22;8594;52.052;8.354;2024-02-21T05:25:12;9.40;99.90
16955;DHT22;8594;52.052;8.354;2024-02-21T05:27:39;9.40;99.90
16955;DHT22;8594;52.052;8.354;2024-02-21T05:30:07;9.40;99.90
16955;DHT22;8594;52.052;8.354;2024-02-21T05:32:36;9.40;99.90
16955;DHT22;8594;52.052;8.354;2024-02-21T05:35:03;9.30;99.90
16955;DHT22;8594;52.052;8.354;2024-02-21T05:37:30;9.40;99.90
16955;DHT22;8594;52.052;8.354;2024-02-21T05:39:57;9.30;99.90
16955;DHT22;8594;52.052;8.354;2024-02-21T05:42:23;9.30;99.90
16955;DHT22;8594;52.052;8.354;2024-02-21T05:44:50;9.20;99.90
16955;DHT22;8594;52.052;8.354;2024-02-21T05:47:17;9.20;99.90
16955;DHT22;8594;52.052;8.354;2024-02-21T05:49:47;9.30;99.90
16955;DHT22;8594;52.052;8.354;2024-02-21T05:52:14;9.40;99.90
16955;DHT22;8594;52.052;8.354;2024-02-21T05:54:41;9.40;99.90
16955;DHT22;8594;52.052;8.354;2024-02-21T05:57:07;9.40;99.90
16955;DHT22;8594;52.052;8.354;2024-02-21T05:59:34;9.40;99.90
16955;DHT22;8594;52.052;8.354;2024-02-21T06:02:05;9.40;99.90
16955;DHT22;8594;52.052;8.354;2024-02-21T06:04:32;9.30;99.90
16955;DHT22;8594;52.052;8.354;2024-02-21T06:07:00;9.30;99.90
16955;DHT22;8594;52.052;8.354;2024-02-21T06:09:27;9.40;99.90
16955;DHT22;8594;52.052;8.354;2024-02-21T06:11:53;9.40;99.90
16955;DHT22;8594;52.052;8.354;2024-02-21T06:14:20;9.50;99.90
16955;DHT22;8594;52.052;8.354;2024-02-21T06:16:47;9.40;99.90
16955;DHT22;8594;52.052;8.354;2024-02-21T06:19:14;9.40;99.90
16955;DHT22;8594;52.052;8.354;2024-02-21T06:21:41;9.40;99.90
16955;DHT22;8594;52.052;8.354;2024-02-21T06:24:11;9.40;99.90
16955;DHT22;8594;52.052;8.354;2024-02-21T06:26:38;9.40;99.90
16955;DHT22;8594;52.052;8.354;2024-02-21T06:29:05;9.50;99.90
16955;DHT22;8594;52.052;8.354;2024-02-21T06:31:32;9.50;99.90
16955;DHT22;8594;52.052;8.354;2024-02-21T06:33:59;9.60;99.90
16955;DHT22;8594;52.052;8.354;2024-02-21T06:36:25;9.50;99.90
16955;DHT22;8594;52.052;8.354;2024-02-21T06:38:52;9.50;99.90
16955;DHT22;8594;52.052;8.354;2024-02-21T06:41:20;9.50;99.90
16955;DHT22;8594;52.052;8.354;2024-02-21T06:43:47;9.40;99.90
16955;DHT22;8594;52.052;8.354;2024-02-21T06:46:23;9.50;99.90
16955;DHT22;8594;52.052;8.354;2024-02-21T06:48:50;9.70;99.90
16955;DHT22;8594;52.052;8.354;2024-02-21T06:51:17;9.70;99.90
16955;DHT22;8594;52.052;8.354;2024-02-21T06:53:44;9.70;99.90
16955;DHT22;8594;52.052;8.354;2024-02-21T06:56:11;9.60;99.90
16955;DHT22;8594;52.052;8.354;2024-02-21T06:58:39;9.60;99.90
16955;DHT22;8594;52.052;8.354;2024-02-21T07:01:06;9.70;99.90
16955;DHT22;8594;52.052;8.354;2024-02-21T07:03:33;9.80;99.90
16955;DHT22;8594;52.052;8.354;2024-02-21T07:06:00;9.90;99.90
16955;DHT22;8594;52.052;8.354;2024-02-21T07:08:26;9.90;99.90
16955;DHT22;8594;52.052;8.354;2024-02-21T07:10:53;9.90;99.90
16955;DHT22;8594;52.052;8.354;2024-02-21T07:13:20;9.90;99.90
16955;DHT22;8594;52.052;8.354;2024-02-21T07:15:49;9.90;99.90
16955;DHT22;8594;52.052;8.354;2024-02-21T07:18:16;9.90;99.90
16955;DHT22;8594;52.052;8.354;2024-02-21T07:20:43;9.80;99.90
16955;DHT22;8594;52.052;8.354;2024-02-21T07:23:10;9.80;99.90
16955;DHT22;8594;52.052;8.354;2024-02-21T07:25:36;9.90;99.90
16955;DHT22;8594;52.052;8.354;2024-02-21T07:28:04;10.00;99.90
16955;DHT22;8594;52.052;8.354;2024-02-21T07:30:31;10.00;99.90
16955;DHT22;8594;52.052;8.354;2024-02-21T07:32:59;9.90;99.90
16955;DHT22;8594;52.052;8.354;2024-02-21T07:35:25;9.90;99.90
16955;DHT22;8594;52.052;8.354;2024-02-21T07:37:52;9.90;99.90
16955;DHT22;8594;52.052;8.354;2024-02-21T07:40:19;10.00;99.90
16955;DHT22;8594;52.052;8.354;2024-02-21T07:42:46;10.00;99.90
16955;DHT22;8594;52.052;8.354;2024-02-21T07:45:13;9.90;99.90
16955;DHT22;8594;52.052;8.354;2024-02-21T07:47:40;10.00;99.90
16955;DHT22;8594;52.052;8.354;2024-02-21T07:50:08;10.10;99.90
16955;DHT22;8594;52.052;8.354;2024-02-21T07:52:35;10.20;99.90
16955;DHT22;8594;52.052;8.354;2024-02-21T07:55:02;10.10;99.90
16955;DHT22;8594;52.052;8.354;2024-02-21T07:57:29;10.10;99.90
16955;DHT22;8594;52.052;8.354;2024-02-21T07:59:56;10.10;99.90
16955;DHT22;8594;52.052;8.354;2024-02-21T08:02:23;10.10;99.90
16955;DHT22;8594;52.052;8.354;2024-02-21T08:04:50;10.10;99.90
16955;DHT22;8594;52.052;8.354;2024-02-21T08:07:18;10.10;99.90
16955;DHT22;8594;52.052;8.354;2024-02-21T08:09:44;10.30;99.90
16955;DHT22;8594;52.052;8.354;2024-02-21T08:12:11;10.30;99.90
16955;DHT22;8594;52.052;8.354;2024-02-21T08:14:38;10.30;99.90
16955;DHT22;8594;52.052;8.354;2024-02-21T08:17:04;10.30;99.90
16955;DHT22;8594;52.052;8.354;2024-02-21T08:19:31;10.30;99.90
16955;DHT22;8594;52.052;8.354;2024-02-21T08:21:58;10.40;99.90
16955;DHT22;8594;52.052;8.354;2024-02-21T08:24:27;10.30;99.90
16955;DHT22;8594;52.052;8.354;2024-02-21T08:26:53;10.20;99.90
16955;DHT22;8594;52.052;8.354;2024-02-21T08:29:20;10.20;99.90
16955;DHT22;8594;52.052;8.354;2024-02-21T08:31:47;10.30;99.90
16955;DHT22;8594;52.052;8.354;2024-02-21T08:34:13;10.30;99.90
16955;DHT22;8594;52.052;8.354;2024-02-21T08:36:40;10.20;99.90
16955;DHT22;8594;52.052;8.354;2024-02-21T08:39:07;10.40;99.90
16955;DHT22;8594;52.052;8.354;2024-02-21T08:41:36;10.50;99.90
16955;DHT22;8594;52.052;8.354;2024-02-21T08:44:04;10.80;99.90
16955;DHT22;8594;52.052;8.354;2024-02-21T08:46:30;10.80;99.90
16955;DHT22;8594;52.052;8.354;2024-02-21T08:48:57;10.80;99.90
16955;DHT22;8594;52.052;8.354;2024-02-21T08:51:24;10.70;99.90
16955;DHT22;8594;52.052;8.354;2024-02-21T08:53:52;10.90;99.90
16955;DHT22;8594;52.052;8.354;2024-02-21T08:56:19;10.90;99.90
16955;DHT22;8594;52.052;8.354;2024-02-21T08:58:47;10.90;99.90
16955;DHT22;8594;52.052;8.354;2024-02-21T09:01:14;10.80;99.90
16955;DHT22;8594;52.052;8.354;2024-02-21T09:03:40;10.90;99.90
16955;DHT22;8594;52.052;8.354;2024-02-21T09:06:11;11.10;99.90
16955;DHT22;8594;52.052;8.354;2024-02-21T09:08:38;11.30;99.90
16955;DHT22;8594;52.052;8.354;2024-02-21T09:11:06;11.00;99.90
16955;DHT22;8594;52.052;8.354;2024-02-21T09:13:33;11.10;99.90
16955;DHT22;8594;52.052;8.354;2024-02-21T09:16:01;11.10;99.90
16955;DHT22;8594;52.052;8.354;2024-02-21T09:18:28;11.10;99.90
16955;DHT22;8594;52.052;8.354;2024-02-21T09:20:55;11.10;99.90
16955;DHT22;8594;52.052;8.354;2024-02-21T09:23:24;11.10;99.90
16955;DHT22;8594;52.052;8.354;2024-02-21T09:25:50;11.10;99.90
16955;DHT22;8594;52.052;8.354;2024-02-21T09:28:17;11.10;99.90
16955;DHT22;8594;52.052;8.354;2024-02-21T09:30:44;11.20;99.90
16955;DHT22;8594;52.052;8.354;2024-02-21T09:33:12;11.30;99.90
16955;DHT22;8594;52.052;8.354;2024-02-21T09:35:42;11.20;99.90
16955;DHT22;8594;52.052;8.354;2024-02-21T09:38:08;11.30;99.90
16955;DHT22;8594;52.052;8.354;2024-02-21T09:40:35;11.20;99.90
16955;DHT22;8594;52.052;8.354;2024-02-21T09:43:05;11.20;99.90
16955;DHT22;8594;52.052;8.354;2024-02-21T09:45:33;11.40;99.90
16955;DHT22;8594;52.052;8.354;2024-02-21T09:48:15;11.40;99.90
16955;DHT22;8594;52.052;8.354;2024-02-21T09:50:50;11.60;99.90
16955;DHT22;8594;52.052;8.354;2024-02-21T09:53:19;11.60;99.90
16955;DHT22;8594;52.052;8.354;2024-02-21T09:55:47;11.50;99.90
16955;DHT22;8594;52.052;8.354;2024-02-21T09:58:15;11.60;99.90
16955;DHT22;8594;52.052;8.354;2024-02-21T10:00:42;11.70;99.90
16955;DHT22;8594;52.052;8.354;2024-02-21T10:03:09;11.90;99.90
16955;DHT22;8594;52.052;8.354;2024-02-21T10:05:38;12.00;99.90
16955;DHT22;8594;52.052;8.354;2024-02-21T10:08:05;12.10;99.90
16955;DHT22;8594;52.052;8.354;2024-02-21T10:10:41;12.20;99.90
16955;DHT22;8594;52.052;8.354;2024-02-21T10:13:09;12.10;99.90
16955;DHT22;8594;52.052;8.354;2024-02-21T10:15:37;11.90;99.90
16955;DHT22;8594;52.052;8.354;2024-02-21T10:18:04;11.90;99.90
16955;DHT22;8594;52.052;8.354;2024-02-21T10:20:32;11.80;99.90
16955;DHT22;8594;52.052;8.354;2024-02-21T10:23:04;11.70;99.90
16955;DHT22;8594;52.052;8.354;2024-02-21T10:25:34;11.60;99.90
16955;DHT22;8594;52.052;8.354;2024-02-21T10:28:03;11.70;99.90
16955;DHT22;8594;52.052;8.354;2024-02-21T10:30:30;11.70;99.90
16955;DHT22;8594;52.052;8.354;2024-02-21T10:32:57;11.60;99.90
16955;DHT22;8594;52.052;8.354;2024-02-21T10:35:27;11.70;99.90
16955;DHT22;8594;52.052;8.354;2024-02-21T10:37:57;11.60;99.90
16955;DHT22;8594;52.052;8.354;2024-02-21T10:40:29;11.50;99.90
16955;DHT22;8594;52.052;8.354;2024-02-21T10:42:57;11.50;99.90
16955;DHT22;8594;52.052;8.354;2024-02-21T10:45:29;11.40;99.90
16955;DHT22;8594;52.052;8.354;2024-02-21T10:48:10;11.20;99.90
16955;DHT22;8594;52.052;8.354;2024-02-21T10:50:52;11.10;99.90
16955;DHT22;8594;52.052;8.354;2024-02-21T10:53:29;11.10;99.90
16955;DHT22;8594;52.052;8.354;2024-02-21T10:56:13;11.10;99.90
16955;DHT22;8594;52.052;8.354;2024-02-21T10:58:48;11.20;99.90
16955;DHT22;8594;52.052;8.354;2024-02-21T11:01:16;11.30;99.90
16955;DHT22;8594;52.052;8.354;2024-02-21T11:03:45;11.20;99.90
16955;DHT22;8594;52.052;8.354;2024-02-21T11:06:15;11.30;99.90
16955;DHT22;8594;52.052;8.354;2024-02-21T11:08:43;11.40;99.90
16955;DHT22;8594;52.052;8.354;2024-02-21T11:11:13;11.50;99.90
16955;DHT22;8594;52.052;8.354;2024-02-21T11:13:44;11.50;99.90
16955;DHT22;8594;52.052;8.354;2024-02-21T11:16:12;11.40;99.90
16955;DHT22;8594;52.052;8.354;2024-02-21T11:18:48;11.40;99.90
16955;DHT22;8594;52.052;8.354;2024-02-21T11:21:15;11.50;99.90
16955;DHT22;8594;52.052;8.354;2024-02-21T11:23:42;11.50;99.90
16955;DHT22;8594;52.052;8.354;2024-02-21T11:26:09;11.50;99.90
16955;DHT22;8594;52.052;8.354;2024-02-21T11:28:37;11.60;99.90
16955;DHT22;8594;52.052;8.354;2024-02-21T11:31:07;11.80;99.90
16955;DHT22;8594;52.052;8.354;2024-02-21T11:33:34;12.00;99.90
16955;DHT22;8594;52.052;8.354;2024-02-21T11:36:01;11.90;99.90
16955;DHT22;8594;52.052;8.354;2024-02-21T11:38:30;12.00;99.90
16955;DHT22;8594;52.052;8.354;2024-02-21T11:40:56;11.70;99.90
16955;DHT22;8594;52.052;8.354;2024-02-21T11:43:23;11.70;99.90
16955;DHT22;8594;52.052;8.354;2024-02-21T11:45:58;11.60;99.90
16955;DHT22;8594;52.052;8.354;2024-02-21T11:48:26;11.60;99.90
16955;DHT22;8594;52.052;8.354;2024-02-21T11:50:53;11.50;99.90
16955;DHT22;8594;52.052;8.354;2024-02-21T11:53:21;11.50;99.90
16955;DHT22;8594;52.052;8.354;2024-02-21T11:55:49;11.50;99.90
16955;DHT22;8594;52.052;8.354;2024-02-21T11:58:16;11.40;99.90
16955;DHT22;8594;52.052;8.354;2024-02-21T12:00:43;11.10;99.90
16955;DHT22;8594;52.052;8.354;2024-02-21T12:03:14;10.90;99.90
16955;DHT22;8594;52.052;8.354;2024-02-21T12:05:41;10.80;99.90
16955;DHT22;8594;52.052;8.354;2024-02-21T12:08:08;10.90;99.90
16955;DHT22;8594;52.052;8.354;2024-02-21T12:10:36;10.90;99.90
16955;DHT22;8594;52.052;8.354;2024-02-21T12:13:06;10.70;99.90
16955;DHT22;8594;52.052;8.354;2024-02-21T12:15:34;10.60;99.90
16955;DHT22;8594;52.052;8.354;2024-02-21T12:18:01;10.70;99.90
16955;DHT22;8594;52.052;8.354;2024-02-21T12:20:30;10.70;99.90
16955;DHT22;8594;52.052;8.354;2024-02-21T12:23:00;10.70;99.90
16955;DHT22;8594;52.052;8.354;2024-02-21T12:25:27;10.50;99.90
16955;DHT22;8594;52.052;8.354;2024-02-21T12:27:55;10.50;99.90
16955;DHT22;8594;52.052;8.354;2024-02-21T12:30:22;10.70;99.90
16955;DHT22;8594;52.052;8.354;2024-02-21T12:32:48;10.60;99.90
16955;DHT22;8594;52.052;8.354;2024-02-21T12:35:15;10.80;99.90
16955;DHT22;8594;52.052;8.354;2024-02-21T12:37:44;11.00;99.90
16955;DHT22;8594;52.052;8.354;2024-02-21T12:40:11;11.00;99.90
16955;DHT22;8594;52.052;8.354;2024-02-21T12:42:38;11.00;99.90
16955;DHT22;8594;52.052;8.354;2024-02-21T12:45:06;10.80;99.90
16955;DHT22;8594;52.052;8.354;2024-02-21T12:47:33;10.80;99.90
16955;DHT22;8594;52.052;8.354;2024-02-21T12:50:00;10.90;99.90
16955;DHT22;8594;52.052;8.354;2024-02-21T12:52:28;11.00;99.90
16955;DHT22;8594;52.052;8.354;2024-02-21T12:54:58;11.00;99.90
16955;DHT22;8594;52.052;8.354;2024-02-21T12:57:24;11.10;99.90
16955;DHT22;8594;52.052;8.354;2024-02-21T12:59:51;10.90;99.90
16955;DHT22;8594;52.052;8.354;2024-02-21T13:02:18;10.80;99.90
16955;DHT22;8594;52.052;8.354;2024-02-21T13:04:45;10.70;99.90
16955;DHT22;8594;52.052;8.354;2024-02-21T13:07:12;10.70;99.90
16955;DHT22;8594;52.052;8.354;2024-02-21T13:09:38;10.80;99.90
16955;DHT22;8594;52.052;8.354;2024-02-21T13:12:07;11.00;99.90
16955;DHT22;8594;52.052;8.354;2024-02-21T13:14:34;11.10;99.90
16955;DHT22;8594;52.052;8.354;2024-02-21T13:17:04;11.20;99.90
16955;DHT22;8594;52.052;8.354;2024-02-21T13:19:31;11.30;99.90
16955;DHT22;8594;52.052;8.354;2024-02-21T13:21:58;11.30;99.90
16955;DHT22;8594;52.052;8.354;2024-02-21T13:24:24;11.40;99.90
16955;DHT22;8594;52.052;8.354;2024-02-21T13:26:51;11.40;99.90
16955;DHT22;8594;52.052;8.354;2024-02-21T13:29:19;11.40;99.90
16955;DHT22;8594;52.052;8.354;2024-02-21T13:31:46;11.50;99.90
16955;DHT22;8594;52.052;8.354;2024-02-21T13:34:13;11.60;99.90
16955;DHT22;8594;52.052;8.354;2024-02-21T13:36:40;11.50;99.90
16955;DHT22;8594;52.052;8.354;2024-02-21T13:39:06;11.60;99.90
16955;DHT22;8594;52.052;8.354;2024-02-21T13:41:38;11.60;99.90
16955;DHT22;8594;52.052;8.354;2024-02-21T13:44:05;11.70;99.90
16955;DHT22;8594;52.052;8.354;2024-02-21T13:46:33;11.60;99.90
16955;DHT22;8594;52.052;8.354;2024-02-21T13:49:03;11.50;99.90
16955;DHT22;8594;52.052;8.354;2024-02-21T13:51:33;11.40;99.90
16955;DHT22;8594;52.052;8.354;2024-02-21T13:54:01;11.50;99.90
16955;DHT22;8594;52.052;8.354;2024-02-21T13:56:28;11.60;99.90
16955;DHT22;8594;52.052;8.354;2024-02-21T13:58:55;11.50;99.90
16955;DHT22;8594;52.052;8.354;2024-02-21T14:01:21;11.50;99.90
16955;DHT22;8594;52.052;8.354;2024-02-21T14:03:49;11.40;99.90
16955;DHT22;8594;52.052;8.354;2024-02-21T14:06:16;11.40;99.90
16955;DHT22;8594;52.052;8.354;2024-02-21T14:08:43;11.40;99.90
16955;DHT22;8594;52.052;8.354;2024-02-21T14:11:10;11.40;99.90
16955;DHT22;8594;52.052;8.354;2024-02-21T14:13:37;11.50;99.90
16955;DHT22;8594;52.052;8.354;2024-02-21T14:16:09;11.50;99.90
16955;DHT22;8594;52.052;8.354;2024-02-21T14:18:38;11.50;99.90
16955;DHT22;8594;52.052;8.354;2024-02-21T14:21:07;11.40;99.90
16955;DHT22;8594;52.052;8.354;2024-02-21T14:23:35;11.50;99.90
16955;DHT22;8594;52.052;8.354;2024-02-21T14:26:02;11.70;99.90
16955;DHT22;8594;52.052;8.354;2024-02-21T14:28:30;11.60;99.90
16955;DHT22;8594;52.052;8.354;2024-02-21T14:30:57;11.60;99.90
16955;DHT22;8594;52.052;8.354;2024-02-21T14:33:25;11.40;99.90
16955;DHT22;8594;52.052;8.354;2024-02-21T14:35:52;11.50;99.90
16955;DHT22;8594;52.052;8.354;2024-02-21T14:38:20;11.70;99.90
16955;DHT22;8594;52.052;8.354;2024-02-21T14:40:47;12.00;99.90
16955;DHT22;8594;52.052;8.354;2024-02-21T14:43:14;12.00;99.90
16955;DHT22;8594;52.052;8.354;2024-02-21T14:45:40;11.90;99.90
16955;DHT22;8594;52.052;8.354;2024-02-21T14:48:08;11.70;99.90
16955;DHT22;8594;52.052;8.354;2024-02-21T14:50:35;11.80;99.90
16955;DHT22;8594;52.052;8.354;2024-02-21T14:53:01;12.00;99.90
16955;DHT22;8594;52.052;8.354;2024-02-21T14:55:30;12.00;99.90
16955;DHT22;8594;52.052;8.354;2024-02-21T14:57:56;11.90;99.90
16955;DHT22;8594;52.052;8.354;2024-02-21T15:00:23;12.10;99.90
16955;DHT22;8594;52.052;8.354;2024-02-21T15:02:55;12.00;99.90
16955;DHT22;8594;52.052;8.354;2024-02-21T15:05:22;11.80;99.90
16955;DHT22;8594;52.052;8.354;2024-02-21T15:07:49;11.90;99.90
16955;DHT22;8594;52.052;8.354;2024-02-21T15:10:16;11.80;99.90
16955;DHT22;8594;52.052;8.354;2024-02-21T15:12:45;11.70;99.90
16955;DHT22;8594;52.052;8.354;2024-02-21T15:15:13;11.50;99.90
16955;DHT22;8594;52.052;8.354;2024-02-21T15:17:40;11.50;99.90
16955;DHT22;8594;52.052;8.354;2024-02-21T15:20:08;11.50;99.90
16955;DHT22;8594;52.052;8.354;2024-02-21T15:22:35;11.50;99.90
16955;DHT22;8594;52.052;8.354;2024-02-21T15:25:02;11.50;99.90
16955;DHT22;8594;52.052;8.354;2024-02-21T15:27:31;11.40;99.90
16955;DHT22;8594;52.052;8.354;2024-02-21T15:29:59;11.30;99.90
16955;DHT22;8594;52.052;8.354;2024-02-21T15:32:28;11.40;99.90
16955;DHT22;8594;52.052;8.354;2024-02-21T15:34:54;11.60;99.90
16955;DHT22;8594;52.052;8.354;2024-02-21T15:37:21;11.50;99.90
16955;DHT22;8594;52.052;8.354;2024-02-21T15:39:48;11.60;99.90
16955;DHT22;8594;52.052;8.354;2024-02-21T15:42:15;11.70;99.90
16955;DHT22;8594;52.052;8.354;2024-02-21T15:44:42;11.60;99.90
16955;DHT22;8594;52.052;8.354;2024-02-21T15:47:11;11.60;99.90
16955;DHT22;8594;52.052;8.354;2024-02-21T15:49:37;11.60;99.90
16955;DHT22;8594;52.052;8.354;2024-02-21T15:52:05;11.60;99.90
16955;DHT22;8594;52.052;8.354;2024-02-21T15:54:32;11.70;99.90